sensor_id;sensor_type;location;lat;lon;timestamp;pressure;altitude;pressure_sealevel;temperature;humidity
18819;BME280;9537;45.594;9.294;2022-08-19T00:00:46;99004.09;;;21.45;79.63
18819;BME280;9537;45.594;9.294;2022-08-19T00:01:49;99013.22;;;21.44;79.61
18819;BME280;9537;45.594;9.294;2022-08-19T00:02:51;99014.03;;;21.45;79.44
18819;BME280;9537;45.594;9.294;2022-08-19T00:03:53;99015.91;;;21.44;79.32
18819;BME280;9537;45.594;9.294;2022-08-19T00:04:54;99014.81;;;21.45;79.08
18819;BME280;9537;45.594;9.294;2022-08-19T00:05:56;99015.63;;;21.46;78.79
18819;BME280;9537;45.594;9.294;2022-08-19T00:06:58;99004.88;;;21.46;78.49
18819;BME280;9537;45.594;9.294;2022-08-19T00:08:00;99000.34;;;21.46;78.14
18819;BME280;9537;45.594;9.294;2022-08-19T00:09:03;98993.34;;;21.45;78.41
18819;BME280;9537;45.594;9.294;2022-08-19T00:10:06;98994.97;;;21.46;78.24
18819;BME280;9537;45.594;9.294;2022-08-19T00:11:07;98989.59;;;21.46;78.21
18819;BME280;9537;45.594;9.294;2022-08-19T00:12:10;98986.91;;;21.46;78.40
18819;BME280;9537;45.594;9.294;2022-08-19T00:13:12;98993.34;;;21.45;78.10
18819;BME280;9537;45.594;9.294;2022-08-19T00:14:16;98999.25;;;21.47;77.99
18819;BME280;9537;45.594;9.294;2022-08-19T00:15:20;99005.72;;;21.46;77.98
18819;BME280;9537;45.594;9.294;2022-08-19T00:16:23;99015.63;;;21.46;77.86
18819;BME280;9537;45.594;9.294;2022-08-19T00:17:25;99006.78;;;21.45;77.74
18819;BME280;9537;45.594;9.294;2022-08-19T00:18:27;99006.22;;;21.43;77.81
18819;BME280;9537;45.594;9.294;2022-08-19T00:19:28;99007.84;;;21.44;77.86
18819;BME280;9537;45.594;9.294;2022-08-19T00:20:30;99004.09;;;21.45;77.63
18819;BME280;9537;45.594;9.294;2022-08-19T00:21:32;99009.22;;;21.47;77.36
18819;BME280;9537;45.594;9.294;2022-08-19T00:22:40;99001.16;;;21.47;77.25
18819;BME280;9537;45.594;9.294;2022-08-19T00:23:42;99011.09;;;21.46;76.93
18819;BME280;9537;45.594;9.294;2022-08-19T00:24:44;98999.25;;;21.47;77.16
18819;BME280;9537;45.594;9.294;2022-08-19T00:25:45;98997.38;;;21.48;77.23
18819;BME280;9537;45.594;9.294;2022-08-19T00:26:48;98995.78;;;21.47;77.60
18819;BME280;9537;45.594;9.294;2022-08-19T00:27:49;98987.97;;;21.45;78.04
18819;BME280;9537;45.594;9.294;2022-08-19T00:28:53;98979.34;;;21.43;78.35
18819;BME280;9537;45.594;9.294;2022-08-19T00:29:54;98977.75;;;21.42;78.38
18819;BME280;9537;45.594;9.294;2022-08-19T00:30:56;98973.69;;;21.40;78.78
18819;BME280;9537;45.594;9.294;2022-08-19T00:31:57;98967.78;;;21.38;78.86
18819;BME280;9537;45.594;9.294;2022-08-19T00:33:00;98970.47;;;21.38;78.81
18819;BME280;9537;45.594;9.294;2022-08-19T00:34:01;98970.69;;;21.36;79.16
18819;BME280;9537;45.594;9.294;2022-08-19T00:35:05;98978.75;;;21.36;79.02
18819;BME280;9537;45.594;9.294;2022-08-19T00:36:07;98977.47;;;21.39;79.03
18819;BME280;9537;45.594;9.294;2022-08-19T00:37:09;98978.53;;;21.38;79.17
18819;BME280;9537;45.594;9.294;2022-08-19T00:38:11;98983.91;;;21.38;79.17
18819;BME280;9537;45.594;9.294;2022-08-19T00:39:14;98984.72;;;21.38;79.27
18819;BME280;9537;45.594;9.294;2022-08-19T00:40:16;98993.56;;;21.39;79.17
18819;BME280;9537;45.594;9.294;2022-08-19T00:41:21;98992.78;;;21.38;79.13
18819;BME280;9537;45.594;9.294;2022-08-19T00:42:23;98990.88;;;21.39;79.12
18819;BME280;9537;45.594;9.294;2022-08-19T00:43:28;98996.25;;;21.39;78.88
18819;BME280;9537;45.594;9.294;2022-08-19T00:44:31;98994.38;;;21.39;78.88
18819;BME280;9537;45.594;9.294;2022-08-19T00:45:33;99002.44;;;21.39;78.76
18819;BME280;9537;45.594;9.294;2022-08-19T00:46:36;98997.06;;;21.39;78.89
18819;BME280;9537;45.594;9.294;2022-08-19T00:47:39;98995.19;;;21.40;78.76
18819;BME280;9537;45.594;9.294;2022-08-19T00:48:40;98994.38;;;21.39;78.91
18819;BME280;9537;45.594;9.294;2022-08-19T00:49:45;98986.06;;;21.41;78.76
18819;BME280;9537;45.594;9.294;2022-08-19T00:50:52;98991.44;;;21.41;78.72
18819;BME280;9537;45.594;9.294;2022-08-19T00:52:00;99001.91;;;21.42;78.75
18819;BME280;9537;45.594;9.294;2022-08-19T00:53:03;99000.84;;;21.43;78.52
18819;BME280;9537;45.594;9.294;2022-08-19T00:54:05;98998.16;;;21.43;78.45
18819;BME280;9537;45.594;9.294;2022-08-19T00:55:08;98992.78;;;21.43;78.49
18819;BME280;9537;45.594;9.294;2022-08-19T00:56:12;98996.31;;;21.44;78.60
18819;BME280;9537;45.594;9.294;2022-08-19T00:57:15;98990.66;;;21.45;78.54
18819;BME280;9537;45.594;9.294;2022-08-19T00:58:20;98976.66;;;21.43;78.54
18819;BME280;9537;45.594;9.294;2022-08-19T00:59:23;98980.72;;;21.46;78.77
18819;BME280;9537;45.594;9.294;2022-08-19T01:00:28;98969.69;;;21.42;79.30
18819;BME280;9537;45.594;9.294;2022-08-19T01:01:29;98969.69;;;21.42;79.37
18819;BME280;9537;45.594;9.294;2022-08-19T01:02:32;98959.22;;;21.41;79.70
18819;BME280;9537;45.594;9.294;2022-08-19T01:03:33;98966.72;;;21.39;79.78
18819;BME280;9537;45.594;9.294;2022-08-19T01:04:35;98964.28;;;21.37;79.87
18819;BME280;9537;45.594;9.294;2022-08-19T01:05:36;98982.53;;;21.35;79.97
18819;BME280;9537;45.594;9.294;2022-08-19T01:06:40;98980.88;;;21.34;80.13
18819;BME280;9537;45.594;9.294;2022-08-19T01:07:42;98988.69;;;21.35;80.22
18819;BME280;9537;45.594;9.294;2022-08-19T01:08:44;98990.34;;;21.36;80.05
18819;BME280;9537;45.594;9.294;2022-08-19T01:09:45;98985.22;;;21.35;80.29
18819;BME280;9537;45.594;9.294;2022-08-19T01:10:50;98983.31;;;21.35;80.30
18819;BME280;9537;45.594;9.294;2022-08-19T01:11:53;98980.63;;;21.35;80.22
18819;BME280;9537;45.594;9.294;2022-08-19T01:12:58;98969.66;;;21.37;80.33
18819;BME280;9537;45.594;9.294;2022-08-19T01:13:59;98967.44;;;21.34;80.29
18819;BME280;9537;45.594;9.294;2022-08-19T01:15:06;98962.88;;;21.34;80.23
18819;BME280;9537;45.594;9.294;2022-08-19T01:16:10;98958.09;;;21.36;80.11
18819;BME280;9537;45.594;9.294;2022-08-19T01:17:14;98951.63;;;21.32;80.32
18819;BME280;9537;45.594;9.294;2022-08-19T01:18:17;98953.50;;;21.32;80.35
18819;BME280;9537;45.594;9.294;2022-08-19T01:19:26;98951.84;;;21.31;80.44
18819;BME280;9537;45.594;9.294;2022-08-19T01:20:28;98950.81;;;21.32;80.49
18819;BME280;9537;45.594;9.294;2022-08-19T01:21:32;98947.81;;;21.28;80.16
18819;BME280;9537;45.594;9.294;2022-08-19T01:22:38;98943.53;;;21.27;80.30
18819;BME280;9537;45.594;9.294;2022-08-19T01:23:44;98944.31;;;21.28;80.39
18819;BME280;9537;45.594;9.294;2022-08-19T01:24:45;98942.72;;;21.27;80.50
18819;BME280;9537;45.594;9.294;2022-08-19T01:25:50;98941.34;;;21.24;80.29
18819;BME280;9537;45.594;9.294;2022-08-19T01:26:51;98939.47;;;21.25;80.45
18819;BME280;9537;45.594;9.294;2022-08-19T01:27:54;98942.69;;;21.22;80.51
18819;BME280;9537;45.594;9.294;2022-08-19T01:28:57;98940.53;;;21.19;80.51
18819;BME280;9537;45.594;9.294;2022-08-19T01:30:01;98942.66;;;21.17;80.67
18819;BME280;9537;45.594;9.294;2022-08-19T01:31:02;98942.09;;;21.14;80.86
18819;BME280;9537;45.594;9.294;2022-08-19T01:32:05;98950.13;;;21.14;80.76
18819;BME280;9537;45.594;9.294;2022-08-19T01:33:06;98950.13;;;21.14;80.63
18819;BME280;9537;45.594;9.294;2022-08-19T01:34:08;98951.78;;;21.15;80.82
18819;BME280;9537;45.594;9.294;2022-08-19T01:35:10;98963.31;;;21.16;80.82
18819;BME280;9537;45.594;9.294;2022-08-19T01:36:15;98960.88;;;21.14;80.80
18819;BME280;9537;45.594;9.294;2022-08-19T01:37:16;98960.88;;;21.14;80.88
18819;BME280;9537;45.594;9.294;2022-08-19T01:38:23;98965.44;;;21.14;80.49
18819;BME280;9537;45.594;9.294;2022-08-19T01:39:26;98972.47;;;21.15;80.95
18819;BME280;9537;45.594;9.294;2022-08-19T01:40:31;98966.00;;;21.16;80.94
18819;BME280;9537;45.594;9.294;2022-08-19T01:41:32;98964.94;;;21.17;80.65
18819;BME280;9537;45.594;9.294;2022-08-19T01:42:34;98960.63;;;21.16;80.75
18819;BME280;9537;45.594;9.294;2022-08-19T01:43:35;98962.53;;;21.15;81.00
18819;BME280;9537;45.594;9.294;2022-08-19T01:44:39;98968.69;;;21.16;81.00
18819;BME280;9537;45.594;9.294;2022-08-19T01:45:41;98964.13;;;21.17;80.90
18819;BME280;9537;45.594;9.294;2022-08-19T01:46:44;98965.75;;;21.18;81.01
18819;BME280;9537;45.594;9.294;2022-08-19T01:47:47;98967.38;;;21.19;80.82
18819;BME280;9537;45.594;9.294;2022-08-19T01:48:49;98970.06;;;21.19;81.05
18819;BME280;9537;45.594;9.294;2022-08-19T01:49:49;98966.28;;;21.20;80.94
18819;BME280;9537;45.594;9.294;2022-08-19T01:50:52;98965.50;;;21.19;81.07
18819;BME280;9537;45.594;9.294;2022-08-19T01:51:53;98968.19;;;21.19;81.19
18819;BME280;9537;45.594;9.294;2022-08-19T01:52:55;98967.38;;;21.19;81.42
18819;BME280;9537;45.594;9.294;2022-08-19T01:53:58;98980.00;;;21.18;81.51
18819;BME280;9537;45.594;9.294;2022-08-19T01:55:00;98980.25;;;21.17;81.44
18819;BME280;9537;45.594;9.294;2022-08-19T01:56:01;98986.13;;;21.13;81.66
18819;BME280;9537;45.594;9.294;2022-08-19T01:57:07;98980.47;;;21.10;81.65
18819;BME280;9537;45.594;9.294;2022-08-19T01:58:17;98986.91;;;21.09;81.65
18819;BME280;9537;45.594;9.294;2022-08-19T01:59:23;98980.47;;;21.10;81.79
18819;BME280;9537;45.594;9.294;2022-08-19T02:00:26;98978.03;;;21.08;81.76
18819;BME280;9537;45.594;9.294;2022-08-19T02:01:29;98979.91;;;21.08;81.72
18819;BME280;9537;45.594;9.294;2022-08-19T02:02:32;98978.31;;;21.07;81.54
18819;BME280;9537;45.594;9.294;2022-08-19T02:03:34;98976.97;;;21.09;81.64
18819;BME280;9537;45.594;9.294;2022-08-19T02:04:35;98979.09;;;21.07;81.83
18819;BME280;9537;45.594;9.294;2022-08-19T02:05:39;98972.13;;;21.06;81.87
18819;BME280;9537;45.594;9.294;2022-08-19T02:06:40;98972.94;;;21.07;82.16
18819;BME280;9537;45.594;9.294;2022-08-19T02:07:42;98972.66;;;21.08;82.04
18819;BME280;9537;45.594;9.294;2022-08-19T02:08:45;98972.13;;;21.06;82.44
18819;BME280;9537;45.594;9.294;2022-08-19T02:09:49;98970.25;;;21.07;82.66
18819;BME280;9537;45.594;9.294;2022-08-19T02:10:50;98970.50;;;21.05;82.64
18819;BME280;9537;45.594;9.294;2022-08-19T02:11:52;98965.13;;;21.05;82.75
18819;BME280;9537;45.594;9.294;2022-08-19T02:12:54;98967.81;;;21.05;82.93
18819;BME280;9537;45.594;9.294;2022-08-19T02:13:56;98964.59;;;21.03;82.87
18819;BME280;9537;45.594;9.294;2022-08-19T02:14:56;98974.25;;;21.04;82.94
18819;BME280;9537;45.594;9.294;2022-08-19T02:15:59;98970.78;;;21.04;83.06
18819;BME280;9537;45.594;9.294;2022-08-19T02:17:00;98963.53;;;21.04;83.02
18819;BME280;9537;45.594;9.294;2022-08-19T02:18:02;98969.69;;;21.05;82.96
18819;BME280;9537;45.594;9.294;2022-08-19T02:19:03;98966.75;;;21.06;82.93
18819;BME280;9537;45.594;9.294;2022-08-19T02:20:05;98973.19;;;21.05;83.10
18819;BME280;9537;45.594;9.294;2022-08-19T02:21:07;98969.44;;;21.06;83.10
18819;BME280;9537;45.594;9.294;2022-08-19T02:22:09;98965.69;;;21.07;82.79
18819;BME280;9537;45.594;9.294;2022-08-19T02:23:11;98966.75;;;21.06;83.08
18819;BME280;9537;45.594;9.294;2022-08-19T02:24:14;98963.81;;;21.08;82.55
18819;BME280;9537;45.594;9.294;2022-08-19T02:25:16;98958.44;;;21.08;82.80
18819;BME280;9537;45.594;9.294;2022-08-19T02:26:18;98961.13;;;21.08;82.55
18819;BME280;9537;45.594;9.294;2022-08-19T02:27:19;98945.81;;;21.08;82.47
18819;BME280;9537;45.594;9.294;2022-08-19T02:28:21;98946.09;;;21.07;82.59
18819;BME280;9537;45.594;9.294;2022-08-19T02:29:23;98944.44;;;21.06;82.69
18819;BME280;9537;45.594;9.294;2022-08-19T02:30:25;98940.72;;;21.07;82.75
18819;BME280;9537;45.594;9.294;2022-08-19T02:31:26;98942.59;;;21.06;82.43
18819;BME280;9537;45.594;9.294;2022-08-19T02:32:29;98934.78;;;21.05;82.53
18819;BME280;9537;45.594;9.294;2022-08-19T02:33:31;98939.06;;;21.06;82.43
18819;BME280;9537;45.594;9.294;2022-08-19T02:34:34;98934.00;;;21.04;82.46
18819;BME280;9537;45.594;9.294;2022-08-19T02:35:35;98929.69;;;21.03;82.62
18819;BME280;9537;45.594;9.294;2022-08-19T02:36:37;98933.19;;;21.04;82.70
18819;BME280;9537;45.594;9.294;2022-08-19T02:37:38;98925.94;;;21.04;82.37
18819;BME280;9537;45.594;9.294;2022-08-19T02:38:57;98925.38;;;21.02;82.41
18819;BME280;9537;45.594;9.294;2022-08-19T02:40:00;98914.91;;;21.01;82.28
18819;BME280;9537;45.594;9.294;2022-08-19T02:41:11;98918.91;;;20.98;82.46
18819;BME280;9537;45.594;9.294;2022-08-19T02:42:14;98926.44;;;21.01;82.36
18819;BME280;9537;45.594;9.294;2022-08-19T02:43:15;98916.75;;;21.00;82.08
18819;BME280;9537;45.594;9.294;2022-08-19T02:44:17;98925.09;;;20.99;82.14
18819;BME280;9537;45.594;9.294;2022-08-19T02:45:18;98915.69;;;20.96;82.33
18819;BME280;9537;45.594;9.294;2022-08-19T02:46:22;98923.72;;;20.96;82.31
18819;BME280;9537;45.594;9.294;2022-08-19T02:47:23;98917.28;;;20.97;82.21
18819;BME280;9537;45.594;9.294;2022-08-19T02:48:25;98917.56;;;20.96;82.41
18819;BME280;9537;45.594;9.294;2022-08-19T02:49:27;98915.69;;;20.96;82.34
18819;BME280;9537;45.594;9.294;2022-08-19T02:50:28;98914.88;;;20.96;82.35
18819;BME280;9537;45.594;9.294;2022-08-19T02:51:33;98916.75;;;20.95;82.43
18819;BME280;9537;45.594;9.294;2022-08-19T02:52:34;98914.06;;;20.95;82.33
18819;BME280;9537;45.594;9.294;2022-08-19T02:53:36;98917.56;;;20.96;82.48
18819;BME280;9537;45.594;9.294;2022-08-19T02:54:37;98909.50;;;20.96;82.42
18819;BME280;9537;45.594;9.294;2022-08-19T02:55:43;98916.75;;;20.95;82.48
18819;BME280;9537;45.594;9.294;2022-08-19T02:56:46;98913.56;;;20.98;82.44
18819;BME280;9537;45.594;9.294;2022-08-19T02:57:48;98914.59;;;20.97;82.57
18819;BME280;9537;45.594;9.294;2022-08-19T02:58:49;98911.91;;;20.97;82.49
18819;BME280;9537;45.594;9.294;2022-08-19T02:59:52;98915.69;;;20.96;82.53
18819;BME280;9537;45.594;9.294;2022-08-19T03:00:55;98914.59;;;20.97;82.45
18819;BME280;9537;45.594;9.294;2022-08-19T03:01:58;98909.22;;;20.97;82.63
18819;BME280;9537;45.594;9.294;2022-08-19T03:02:59;98914.59;;;20.97;82.65
18819;BME280;9537;45.594;9.294;2022-08-19T03:04:03;98913.56;;;20.98;82.68
18819;BME280;9537;45.594;9.294;2022-08-19T03:05:06;98912.47;;;20.99;82.26
18819;BME280;9537;45.594;9.294;2022-08-19T03:06:12;98914.34;;;20.99;82.48
18819;BME280;9537;45.594;9.294;2022-08-19T03:07:14;98919.72;;;20.99;82.56
18819;BME280;9537;45.594;9.294;2022-08-19T03:08:16;98924.28;;;20.98;82.72
18819;BME280;9537;45.594;9.294;2022-08-19T03:09:18;98921.03;;;20.96;82.73
18819;BME280;9537;45.594;9.294;2022-08-19T03:10:20;98925.59;;;20.96;82.80
18819;BME280;9537;45.594;9.294;2022-08-19T03:11:22;98931.22;;;20.94;82.78
18819;BME280;9537;45.594;9.294;2022-08-19T03:12:26;98942.22;;;20.92;82.87
18819;BME280;9537;45.594;9.294;2022-08-19T03:13:27;98936.31;;;20.90;82.83
18819;BME280;9537;45.594;9.294;2022-08-19T03:14:30;98939.25;;;20.89;82.95
18819;BME280;9537;45.594;9.294;2022-08-19T03:15:31;98935.75;;;20.88;82.90
18819;BME280;9537;45.594;9.294;2022-08-19T03:16:41;98940.31;;;20.88;83.02
18819;BME280;9537;45.594;9.294;2022-08-19T03:17:42;98939.75;;;20.86;83.06
18819;BME280;9537;45.594;9.294;2022-08-19T03:18:44;98932.78;;;20.85;83.25
18819;BME280;9537;45.594;9.294;2022-08-19T03:19:45;98941.63;;;20.85;82.98
18819;BME280;9537;45.594;9.294;2022-08-19T03:20:49;98938.94;;;20.85;83.13
18819;BME280;9537;45.594;9.294;2022-08-19T03:21:51;98942.44;;;20.86;83.10
18819;BME280;9537;45.594;9.294;2022-08-19T03:22:53;98942.44;;;20.86;83.11
18819;BME280;9537;45.594;9.294;2022-08-19T03:23:55;98945.94;;;20.86;83.31
18819;BME280;9537;45.594;9.294;2022-08-19T03:24:58;98936.81;;;20.87;83.24
18819;BME280;9537;45.594;9.294;2022-08-19T03:26:03;98942.19;;;20.87;83.38
18819;BME280;9537;45.594;9.294;2022-08-19T03:27:05;98940.31;;;20.88;83.53
18819;BME280;9537;45.594;9.294;2022-08-19T03:28:08;98946.75;;;20.87;83.71
18819;BME280;9537;45.594;9.294;2022-08-19T03:29:10;98937.91;;;20.86;83.72
18819;BME280;9537;45.594;9.294;2022-08-19T03:30:12;98940.31;;;20.88;83.73
18819;BME280;9537;45.594;9.294;2022-08-19T03:31:17;98933.91;;;20.89;83.96
18819;BME280;9537;45.594;9.294;2022-08-19T03:32:20;98937.63;;;20.88;83.80
18819;BME280;9537;45.594;9.294;2022-08-19T03:33:22;98938.69;;;20.87;83.93
18819;BME280;9537;45.594;9.294;2022-08-19T03:34:26;98938.44;;;20.88;84.11
18819;BME280;9537;45.594;9.294;2022-08-19T03:35:28;98943.28;;;20.86;84.07
18819;BME280;9537;45.594;9.294;2022-08-19T03:36:29;98942.19;;;20.87;84.09
18819;BME280;9537;45.594;9.294;2022-08-19T03:37:31;98944.06;;;20.87;84.13
18819;BME280;9537;45.594;9.294;2022-08-19T03:38:33;98947.56;;;20.87;84.06
18819;BME280;9537;45.594;9.294;2022-08-19T03:39:37;98953.16;;;20.86;84.37
18819;BME280;9537;45.594;9.294;2022-08-19T03:40:38;98948.06;;;20.84;84.46
18819;BME280;9537;45.594;9.294;2022-08-19T03:41:43;98949.16;;;20.83;84.52
18819;BME280;9537;45.594;9.294;2022-08-19T03:42:44;98952.88;;;20.82;84.44
18819;BME280;9537;45.594;9.294;2022-08-19T03:43:48;98949.16;;;20.83;84.51
18819;BME280;9537;45.594;9.294;2022-08-19T03:44:50;98949.41;;;20.82;84.24
18819;BME280;9537;45.594;9.294;2022-08-19T03:46:00;98947.50;;;20.82;84.29
18819;BME280;9537;45.594;9.294;2022-08-19T03:47:01;98944.28;;;20.80;84.57
18819;BME280;9537;45.594;9.294;2022-08-19T03:48:03;98943.47;;;20.80;84.59
18819;BME280;9537;45.594;9.294;2022-08-19T03:49:04;98953.97;;;20.81;84.60
18819;BME280;9537;45.594;9.294;2022-08-19T03:50:08;98941.84;;;20.79;84.39
18819;BME280;9537;45.594;9.294;2022-08-19T03:51:16;98953.41;;;20.79;84.35
18819;BME280;9537;45.594;9.294;2022-08-19T03:52:18;98957.69;;;20.80;84.32
18819;BME280;9537;45.594;9.294;2022-08-19T03:53:20;98967.38;;;20.81;84.48
18819;BME280;9537;45.594;9.294;2022-08-19T03:54:23;98968.19;;;20.82;84.30
18819;BME280;9537;45.594;9.294;2022-08-19T03:55:25;98971.66;;;20.82;84.58
18819;BME280;9537;45.594;9.294;2022-08-19T03:56:27;98978.91;;;20.82;84.44
18819;BME280;9537;45.594;9.294;2022-08-19T03:57:29;98980.53;;;20.83;84.55
18819;BME280;9537;45.594;9.294;2022-08-19T03:58:30;98986.72;;;20.83;84.52
18819;BME280;9537;45.594;9.294;2022-08-19T03:59:35;98983.78;;;20.85;84.58
18819;BME280;9537;45.594;9.294;2022-08-19T04:00:36;98986.22;;;20.86;84.57
18819;BME280;9537;45.594;9.294;2022-08-19T04:01:39;98992.63;;;20.85;84.73
18819;BME280;9537;45.594;9.294;2022-08-19T04:02:40;98989.44;;;20.88;84.76
18819;BME280;9537;45.594;9.294;2022-08-19T04:03:42;98993.75;;;20.89;84.87
18819;BME280;9537;45.594;9.294;2022-08-19T04:04:43;98986.50;;;20.90;84.74
18819;BME280;9537;45.594;9.294;2022-08-19T04:05:46;98984.63;;;20.90;84.76
18819;BME280;9537;45.594;9.294;2022-08-19T04:06:48;98983.00;;;20.89;84.95
18819;BME280;9537;45.594;9.294;2022-08-19T04:07:51;98975.75;;;20.90;84.71
18819;BME280;9537;45.594;9.294;2022-08-19T04:08:54;98981.94;;;20.90;84.77
18819;BME280;9537;45.594;9.294;2022-08-19T04:09:56;98985.41;;;20.91;84.66
18819;BME280;9537;45.594;9.294;2022-08-19T04:10:58;98987.56;;;20.89;84.88
18819;BME280;9537;45.594;9.294;2022-08-19T04:11:59;98984.88;;;20.89;85.15
18819;BME280;9537;45.594;9.294;2022-08-19T04:13:01;98991.88;;;20.90;85.08
18819;BME280;9537;45.594;9.294;2022-08-19T04:14:02;98995.63;;;20.89;84.94
18819;BME280;9537;45.594;9.294;2022-08-19T04:15:08;98995.63;;;20.89;84.83
18819;BME280;9537;45.594;9.294;2022-08-19T04:16:10;98998.31;;;20.89;84.39
18819;BME280;9537;45.594;9.294;2022-08-19T04:17:12;99006.38;;;20.89;84.34
18819;BME280;9537;45.594;9.294;2022-08-19T04:18:14;99014.41;;;20.89;84.47
18819;BME280;9537;45.594;9.294;2022-08-19T04:19:17;99009.59;;;20.91;84.24
18819;BME280;9537;45.594;9.294;2022-08-19T04:20:18;99007.97;;;20.90;84.59
18819;BME280;9537;45.594;9.294;2022-08-19T04:21:23;99009.03;;;20.89;84.32
18819;BME280;9537;45.594;9.294;2022-08-19T04:22:24;99007.41;;;20.88;84.54
18819;BME280;9537;45.594;9.294;2022-08-19T04:23:26;99017.09;;;20.89;84.58
18819;BME280;9537;45.594;9.294;2022-08-19T04:24:28;99010.66;;;20.90;84.63
18819;BME280;9537;45.594;9.294;2022-08-19T04:25:35;99013.34;;;20.90;84.68
18819;BME280;9537;45.594;9.294;2022-08-19T04:26:36;99012.53;;;20.89;84.93
18819;BME280;9537;45.594;9.294;2022-08-19T04:27:39;99017.63;;;20.91;84.99
18819;BME280;9537;45.594;9.294;2022-08-19T04:28:43;99020.31;;;20.91;85.01
18819;BME280;9537;45.594;9.294;2022-08-19T04:29:45;99027.06;;;20.93;84.95
18819;BME280;9537;45.594;9.294;2022-08-19T04:30:52;99023.56;;;20.93;84.99
18819;BME280;9537;45.594;9.294;2022-08-19T04:31:55;99024.38;;;20.93;84.87
18819;BME280;9537;45.594;9.294;2022-08-19T04:32:57;99027.84;;;20.94;85.04
18819;BME280;9537;45.594;9.294;2022-08-19T04:33:59;99035.91;;;20.94;84.84
18819;BME280;9537;45.594;9.294;2022-08-19T04:35:02;99036.47;;;20.96;84.83
18819;BME280;9537;45.594;9.294;2022-08-19T04:36:03;99034.59;;;20.97;84.85
18819;BME280;9537;45.594;9.294;2022-08-19T04:37:06;99025.50;;;20.98;84.85
18819;BME280;9537;45.594;9.294;2022-08-19T04:38:13;99031.66;;;20.98;84.87
18819;BME280;9537;45.594;9.294;2022-08-19T04:39:17;99036.75;;;21.00;85.08
18819;BME280;9537;45.594;9.294;2022-08-19T04:40:19;99031.38;;;21.00;85.07
18819;BME280;9537;45.594;9.294;2022-08-19T04:41:39;99034.88;;;21.00;85.07
18819;BME280;9537;45.594;9.294;2022-08-19T04:42:58;99037.56;;;21.00;84.88
18819;BME280;9537;45.594;9.294;2022-08-19T04:44:01;99040.00;;;21.02;85.04
18819;BME280;9537;45.594;9.294;2022-08-19T04:45:03;99040.81;;;21.02;85.00
18819;BME280;9537;45.594;9.294;2022-08-19T04:46:09;99038.13;;;21.02;85.02
18819;BME280;9537;45.594;9.294;2022-08-19T04:47:10;99038.94;;;21.03;85.05
18819;BME280;9537;45.594;9.294;2022-08-19T04:48:12;99042.44;;;21.03;85.00
18819;BME280;9537;45.594;9.294;2022-08-19T04:49:21;99044.06;;;21.04;84.87
18819;BME280;9537;45.594;9.294;2022-08-19T04:50:28;99051.84;;;21.06;84.94
18819;BME280;9537;45.594;9.294;2022-08-19T04:51:29;99050.00;;;21.06;85.03
18819;BME280;9537;45.594;9.294;2022-08-19T04:52:31;99049.16;;;21.06;85.07
18819;BME280;9537;45.594;9.294;2022-08-19T04:53:34;99053.47;;;21.07;85.13
18819;BME280;9537;45.594;9.294;2022-08-19T04:54:37;99059.66;;;21.07;84.96
18819;BME280;9537;45.594;9.294;2022-08-19T04:55:40;99058.56;;;21.08;84.90
18819;BME280;9537;45.594;9.294;2022-08-19T04:56:42;99062.91;;;21.09;84.98
18819;BME280;9537;45.594;9.294;2022-08-19T04:57:44;99063.94;;;21.08;85.09
18819;BME280;9537;45.594;9.294;2022-08-19T04:58:47;99066.41;;;21.10;84.93
18819;BME280;9537;45.594;9.294;2022-08-19T04:59:48;99072.56;;;21.10;85.18
18819;BME280;9537;45.594;9.294;2022-08-19T05:00:50;99067.19;;;21.10;85.22
18819;BME280;9537;45.594;9.294;2022-08-19T05:01:53;99069.63;;;21.12;85.47
18819;BME280;9537;45.594;9.294;2022-08-19T05:02:56;99073.13;;;21.12;85.12
18819;BME280;9537;45.594;9.294;2022-08-19T05:03:57;99081.19;;;21.12;85.03
18819;BME280;9537;45.594;9.294;2022-08-19T05:05:00;99086.28;;;21.14;84.96
18819;BME280;9537;45.594;9.294;2022-08-19T05:06:04;99090.03;;;21.13;84.95
18819;BME280;9537;45.594;9.294;2022-08-19T05:07:08;99086.03;;;21.15;84.81
18819;BME280;9537;45.594;9.294;2022-08-19T05:08:10;99095.97;;;21.15;84.75
18819;BME280;9537;45.594;9.294;2022-08-19T05:09:13;99091.41;;;21.15;84.72
18819;BME280;9537;45.594;9.294;2022-08-19T05:10:14;99088.44;;;21.17;84.90
18819;BME280;9537;45.594;9.294;2022-08-19T05:11:19;99088.44;;;21.17;85.26
18819;BME280;9537;45.594;9.294;2022-08-19T05:12:20;99101.63;;;21.19;85.57
18819;BME280;9537;45.594;9.294;2022-08-19T05:13:22;99098.38;;;21.17;85.48
18819;BME280;9537;45.594;9.294;2022-08-19T05:14:24;99098.94;;;21.19;85.56
18819;BME280;9537;45.594;9.294;2022-08-19T05:15:26;99096.25;;;21.19;85.22
18819;BME280;9537;45.594;9.294;2022-08-19T05:16:27;99103.25;;;21.20;85.53
18819;BME280;9537;45.594;9.294;2022-08-19T05:17:30;99097.06;;;21.19;85.54
18819;BME280;9537;45.594;9.294;2022-08-19T05:18:32;99098.69;;;21.20;85.45
18819;BME280;9537;45.594;9.294;2022-08-19T05:19:51;99104.06;;;21.20;85.54
18819;BME280;9537;45.594;9.294;2022-08-19T05:21:19;99111.06;;;21.21;85.39
18819;BME280;9537;45.594;9.294;2022-08-19T05:22:39;99113.75;;;21.21;85.27
18819;BME280;9537;45.594;9.294;2022-08-19T05:23:41;99114.56;;;21.22;85.32
18819;BME280;9537;45.594;9.294;2022-08-19T05:24:42;99124.22;;;21.23;84.99
18819;BME280;9537;45.594;9.294;2022-08-19T05:25:44;99125.06;;;21.23;84.96
18819;BME280;9537;45.594;9.294;2022-08-19T05:26:47;99114.31;;;21.23;84.81
18819;BME280;9537;45.594;9.294;2022-08-19T05:27:49;99117.81;;;21.24;84.76
18819;BME280;9537;45.594;9.294;2022-08-19T05:28:51;99111.34;;;21.25;84.91
18819;BME280;9537;45.594;9.294;2022-08-19T05:29:52;99116.72;;;21.25;84.93
18819;BME280;9537;45.594;9.294;2022-08-19T05:30:54;99109.75;;;21.24;84.73
18819;BME280;9537;45.594;9.294;2022-08-19T05:31:56;99099.81;;;21.24;84.90
18819;BME280;9537;45.594;9.294;2022-08-19T05:32:59;99105.97;;;21.25;84.91
18819;BME280;9537;45.594;9.294;2022-08-19T05:34:00;99115.13;;;21.24;84.71
18819;BME280;9537;45.594;9.294;2022-08-19T05:35:03;99121.84;;;21.26;84.69
18819;BME280;9537;45.594;9.294;2022-08-19T05:36:05;99121.03;;;21.26;84.91
18819;BME280;9537;45.594;9.294;2022-08-19T05:37:08;99128.03;;;21.27;85.13
18819;BME280;9537;45.594;9.294;2022-08-19T05:38:10;99128.84;;;21.27;85.29